Time;durP1;ratioP1;P1;durP2;ratioP2;P2;SDS_P1;SDS_P2;PMS_P1;PMS_P2;Temp;Humidity;BMP_temperature;BMP_pressure;BME280_temperature;BME280_humidity;BME280_pressure;Samples;Min_cycle;Max_cycle;Signal;HPM_P1;HPM_P2
2022/12/07 00:01:34;;;;;;;18.23;11.10;;;2.60;99.90;;;;;;5070436;28;20227;-74
2022/12/07 00:04:04;;;;;;;19.17;11.00;;;2.60;99.90;;;;;;5069909;28;20201;-72
2022/12/07 00:06:35;;;;;;;15.63;10.83;;;2.60;99.90;;;;;;5069224;28;20236;-74
2022/12/07 00:09:02;;;;;;;18.67;11.93;;;2.60;99.90;;;;;;5070018;28;20680;-74
2022/12/07 00:11:29;;;;;;;19.70;12.53;;;2.60;99.90;;;;;;5068470;28;20201;-74
2022/12/07 00:13:59;;;;;;;21.20;12.50;;;2.60;99.90;;;;;;5070161;28;20241;-71
2022/12/07 00:16:29;;;;;;;20.87;13.37;;;2.60;99.90;;;;;;5069355;28;20283;-73
2022/12/07 00:18:57;;;;;;;21.67;13.83;;;2.60;99.90;;;;;;5069871;28;20260;-74
2022/12/07 00:21:26;;;;;;;22.03;13.27;;;2.70;99.90;;;;;;5070425;28;20225;-75
2022/12/07 00:23:55;;;;;;;22.67;14.03;;;2.70;99.90;;;;;;5068979;28;20235;-75
2022/12/07 00:26:24;;;;;;;24.20;14.47;;;2.70;99.90;;;;;;5069375;28;20233;-75
2022/12/07 00:28:53;;;;;;;22.13;14.77;;;2.70;99.90;;;;;;5067654;28;20284;-74
2022/12/07 00:31:24;;;;;;;23.43;15.03;;;2.70;99.90;;;;;;5070066;28;20239;-73
2022/12/07 00:33:56;;;;;;;26.53;15.60;;;2.70;99.90;;;;;;5068284;28;20217;-74
2022/12/07 00:36:24;;;;;;;21.17;14.23;;;2.80;99.90;;;;;;5070327;28;20205;-74
2022/12/07 00:38:53;;;;;;;25.63;15.43;;;2.80;99.90;;;;;;5069510;28;20237;-72
2022/12/07 00:41:21;;;;;;;29.00;16.33;;;2.80;99.90;;;;;;5069215;28;20228;-71
2022/12/07 00:43:49;;;;;;;28.17;16.93;;;2.80;99.90;;;;;;5068616;28;20624;-72
2022/12/07 00:46:17;;;;;;;28.77;17.20;;;2.80;99.90;;;;;;5066741;28;20652;-72
2022/12/07 00:48:46;;;;;;;29.00;17.97;;;2.90;99.90;;;;;;5069131;28;20258;-72
2022/12/07 00:51:15;;;;;;;27.83;16.37;;;2.90;99.90;;;;;;5069726;28;20209;-73
2022/12/07 00:53:42;;;;;;;31.00;18.10;;;2.90;99.90;;;;;;5068569;28;20211;-73
2022/12/07 00:56:12;;;;;;;26.03;15.77;;;2.90;99.90;;;;;;5068139;28;20201;-72
2022/12/07 00:58:39;;;;;;;27.47;17.57;;;2.90;99.90;;;;;;5069157;28;20291;-73
2022/12/07 01:01:08;;;;;;;30.43;16.60;;;2.90;99.90;;;;;;5069199;28;20252;-71
2022/12/07 01:03:36;;;;;;;28.00;17.27;;;2.90;99.90;;;;;;5065887;28;20654;-72
2022/12/07 01:06:05;;;;;;;29.27;17.43;;;3.00;99.90;;;;;;5067588;28;20374;-72
2022/12/07 01:08:32;;;;;;;31.90;17.87;;;3.00;99.90;;;;;;5070049;28;20692;-72
2022/12/07 01:11:00;;;;;;;30.83;18.40;;;3.00;99.90;;;;;;5069715;28;20204;-71
2022/12/07 01:13:28;;;;;;;29.77;17.87;;;3.00;99.90;;;;;;5069904;28;20658;-72
2022/12/07 01:15:59;;;;;;;30.87;18.70;;;3.00;99.90;;;;;;5065295;28;20760;-73
2022/12/07 01:18:26;;;;;;;27.20;17.27;;;3.00;99.90;;;;;;5069930;28;20750;-74
2022/12/07 01:21:01;;;;;;;31.30;17.93;;;3.00;99.90;;;;;;5068712;28;20216;-72
2022/12/07 01:23:30;;;;;;;28.57;16.87;;;3.10;99.90;;;;;;5070673;28;20215;-71
2022/12/07 01:26:00;;;;;;;29.07;16.70;;;3.10;99.90;;;;;;5062152;28;20387;-72
2022/12/07 01:28:27;;;;;;;30.50;17.33;;;3.20;99.90;;;;;;5069081;28;20586;-73
2022/12/07 01:30:59;;;;;;;29.23;15.93;;;3.10;99.90;;;;;;5067453;28;20201;-73
2022/12/07 01:33:28;;;;;;;27.67;16.50;;;3.10;99.90;;;;;;5068407;28;20262;-70
2022/12/07 01:35:54;;;;;;;27.40;16.53;;;3.10;99.90;;;;;;5068106;28;20280;-70
2022/12/07 01:38:22;;;;;;;26.57;16.87;;;3.20;99.90;;;;;;5071821;28;20241;-72
2022/12/07 01:40:56;;;;;;;24.57;15.93;;;3.20;99.90;;;;;;5070890;28;20219;-72
2022/12/07 01:43:25;;;;;;;28.63;16.30;;;3.20;99.90;;;;;;5073099;28;20688;-72
2022/12/07 01:45:52;;;;;;;28.03;16.60;;;3.20;99.90;;;;;;5072248;28;20215;-72
2022/12/07 01:48:23;;;;;;;26.93;15.97;;;3.30;99.90;;;;;;5071585;28;20227;-73
2022/12/07 01:50:53;;;;;;;26.87;14.70;;;3.30;99.90;;;;;;5070598;28;20288;-72
2022/12/07 01:53:20;;;;;;;25.30;14.87;;;3.30;99.90;;;;;;5071014;28;20193;-74
2022/12/07 01:55:52;;;;;;;23.93;14.87;;;3.30;99.90;;;;;;5070961;28;21358;-73
2022/12/07 01:58:22;;;;;;;22.33;12.93;;;3.30;99.90;;;;;;5072143;28;20706;-71
2022/12/07 02:00:49;;;;;;;21.23;13.73;;;3.30;99.90;;;;;;5071053;28;20704;-73
2022/12/07 02:03:20;;;;;;;21.23;12.93;;;3.30;99.90;;;;;;5072624;28;20256;-74
2022/12/07 02:05:48;;;;;;;18.90;10.63;;;3.30;99.90;;;;;;5071302;28;20311;-73
2022/12/07 02:08:15;;;;;;;19.13;11.30;;;3.30;99.90;;;;;;5072247;28;20209;-72
2022/12/07 02:10:42;;;;;;;17.20;11.37;;;3.30;99.90;;;;;;5069178;28;20201;-73
2022/12/07 02:13:13;;;;;;;16.97;10.60;;;3.30;99.90;;;;;;5072627;28;20243;-73
2022/12/07 02:16:03;;;;;;;15.83;10.87;;;3.30;99.90;;;;;;5070676;28;20205;-73
2022/12/07 02:18:44;;;;;;;17.03;10.60;;;3.30;99.90;;;;;;5070583;28;20244;-73
2022/12/07 02:21:15;;;;;;;14.97;9.87;;;3.30;99.90;;;;;;5070762;28;20203;-72
2022/12/07 02:24:08;;;;;;;13.83;9.23;;;3.30;99.90;;;;;;5072227;28;20251;-72
2022/12/07 02:27:29;;;;;;;13.83;8.83;;;3.30;99.90;;;;;;5069713;28;20201;-72
2022/12/07 02:30:02;;;;;;;12.40;8.90;;;3.30;99.90;;;;;;5069841;28;20546;-72
2022/12/07 02:32:40;;;;;;;10.97;7.77;;;3.40;99.90;;;;;;5071821;28;20205;-72
2022/12/07 02:35:13;;;;;;;14.03;7.87;;;3.40;99.90;;;;;;5071478;28;20564;-73
2022/12/07 02:37:44;;;;;;;9.07;7.00;;;3.40;99.90;;;;;;5071283;28;20317;-76
2022/12/07 02:40:18;;;;;;;10.03;7.10;;;3.40;99.90;;;;;;5070844;28;20208;-75
2022/12/07 02:42:50;;;;;;;8.47;6.27;;;3.30;99.90;;;;;;5071897;28;20222;-77
2022/12/07 02:45:21;;;;;;;9.30;5.83;;;3.30;99.90;;;;;;5069635;28;20638;-76
2022/12/07 02:47:53;;;;;;;10.43;7.50;;;3.30;99.90;;;;;;5068492;28;20207;-77
2022/12/07 02:50:21;;;;;;;8.20;5.93;;;3.30;99.90;;;;;;5069058;28;20255;-76
2022/12/07 02:52:48;;;;;;;10.97;6.53;;;3.30;99.90;;;;;;5071824;28;20672;-78
2022/12/07 02:55:19;;;;;;;8.90;6.00;;;3.30;99.90;;;;;;5071190;28;20300;-75
2022/12/07 02:58:03;;;;;;;9.00;6.63;;;3.30;99.90;;;;;;5070645;28;20209;-75
2022/12/07 03:00:40;;;;;;;8.67;7.10;;;3.20;99.90;;;;;;5065382;28;20232;-75
2022/12/07 03:03:12;;;;;;;9.80;5.73;;;3.20;99.90;;;;;;5065222;28;20219;-75
2022/12/07 03:06:06;;;;;;;10.20;6.80;;;3.20;99.90;;;;;;5071176;28;20209;-77
2022/12/07 03:08:44;;;;;;;9.40;6.50;;;3.20;99.90;;;;;;5076220;28;20264;-74
2022/12/07 03:11:14;;;;;;;9.03;6.43;;;3.20;99.90;;;;;;5072727;28;20201;-76
2022/12/07 03:13:48;;;;;;;9.83;6.93;;;3.20;99.90;;;;;;5070756;28;20193;-74
2022/12/07 03:16:19;;;;;;;9.20;6.70;;;3.10;99.90;;;;;;5067762;28;20275;-75
2022/12/07 03:18:50;;;;;;;8.10;5.97;;;3.10;99.90;;;;;;5069226;28;21031;-77
2022/12/07 03:21:21;;;;;;;9.37;6.50;;;3.10;99.90;;;;;;5070473;28;20335;-74
2022/12/07 03:23:52;;;;;;;11.90;5.73;;;3.10;99.90;;;;;;5069989;28;20213;-73
2022/12/07 03:26:22;;;;;;;9.60;6.90;;;3.10;99.90;;;;;;5070380;28;20211;-73
2022/12/07 03:28:53;;;;;;;9.10;6.60;;;3.00;99.90;;;;;;5070500;28;20217;-73
2022/12/07 03:31:26;;;;;;;9.17;6.47;;;3.00;99.90;;;;;;5068680;28;20205;-73
2022/12/07 03:34:00;;;;;;;8.37;6.23;;;3.00;99.90;;;;;;5067220;28;20288;-73
2022/12/07 03:36:33;;;;;;;10.77;6.43;;;2.90;99.90;;;;;;5067420;28;20204;-72
2022/12/07 03:39:06;;;;;;;8.73;6.17;;;2.90;99.90;;;;;;5069495;28;20237;-72
2022/12/07 03:41:36;;;;;;;10.73;6.70;;;2.90;99.90;;;;;;5069180;28;20209;-74
2022/12/07 03:44:04;;;;;;;8.57;6.53;;;2.90;99.90;;;;;;5069284;28;20225;-73
2022/12/07 03:46:40;;;;;;;8.17;5.97;;;2.90;99.90;;;;;;5070370;28;20205;-75
2022/12/07 03:49:14;;;;;;;7.40;5.77;;;2.90;99.90;;;;;;5068297;28;20287;-75
2022/12/07 03:51:46;;;;;;;7.40;5.70;;;2.90;99.90;;;;;;5069858;28;20729;-76
2022/12/07 03:54:19;;;;;;;6.73;5.00;;;2.90;99.90;;;;;;5071165;28;20207;-74
2022/12/07 03:56:48;;;;;;;7.93;5.33;;;2.90;99.90;;;;;;5070725;28;20205;-76
2022/12/07 03:59:16;;;;;;;6.53;4.33;;;2.90;99.90;;;;;;5070208;28;20315;-74
2022/12/07 04:01:46;;;;;;;6.40;4.37;;;2.90;99.90;;;;;;5070669;28;20677;-74
2022/12/07 04:04:13;;;;;;;6.80;4.50;;;2.80;99.90;;;;;;5070877;28;20717;-74
2022/12/07 04:06:39;;;;;;;6.17;4.77;;;2.90;99.90;;;;;;5070085;28;20211;-75
2022/12/07 04:09:06;;;;;;;5.73;4.33;;;2.80;99.90;;;;;;5068952;28;20235;-75
2022/12/07 04:11:33;;;;;;;6.87;4.60;;;2.80;99.90;;;;;;5070081;28;20288;-73
2022/12/07 04:14:30;;;;;;;4.77;4.00;;;2.80;99.90;;;;;;5054927;28;20197;-74
2022/12/07 04:17:16;;;;;;;6.10;4.40;;;2.70;99.90;;;;;;5069195;28;20209;-73
2022/12/07 04:19:43;;;;;;;4.37;3.90;;;2.70;99.90;;;;;;5069131;28;20296;-72
2022/12/07 04:22:09;;;;;;;6.93;4.70;;;2.70;99.90;;;;;;5069440;28;20209;-73
2022/12/07 04:24:36;;;;;;;4.93;4.30;;;2.70;99.90;;;;;;5068583;28;20209;-75
2022/12/07 04:27:04;;;;;;;5.47;4.03;;;2.70;99.90;;;;;;5068879;28;20575;-73
2022/12/07 04:29:30;;;;;;;6.93;4.50;;;2.70;99.90;;;;;;5067920;28;20296;-73
2022/12/07 04:31:57;;;;;;;6.27;4.60;;;2.60;99.90;;;;;;5069789;28;20295;-73
2022/12/07 04:34:26;;;;;;;7.90;4.97;;;2.60;99.90;;;;;;5068707;28;20204;-74
2022/12/07 04:36:53;;;;;;;6.23;4.90;;;2.60;99.90;;;;;;5069669;28;20324;-72
2022/12/07 04:39:23;;;;;;;6.17;4.73;;;2.60;99.90;;;;;;5066710;28;20217;-73
2022/12/07 04:41:51;;;;;;;6.07;4.37;;;2.60;99.90;;;;;;5070069;28;20231;-71
2022/12/07 04:44:18;;;;;;;6.00;4.57;;;2.60;99.90;;;;;;5068554;28;20217;-73
2022/12/07 04:46:46;;;;;;;8.20;5.33;;;2.70;99.90;;;;;;5068782;28;20205;-72
2022/12/07 04:49:13;;;;;;;5.57;4.67;;;2.70;99.90;;;;;;5067255;28;20205;-71
2022/12/07 04:51:42;;;;;;;6.27;4.50;;;2.60;99.90;;;;;;5069843;28;20205;-73
2022/12/07 04:54:09;;;;;;;7.37;4.60;;;2.60;99.90;;;;;;5070217;28;20201;-75
2022/12/07 04:56:36;;;;;;;7.07;4.70;;;2.60;99.90;;;;;;5067779;28;20215;-74
2022/12/07 04:59:04;;;;;;;6.10;4.23;;;2.60;99.90;;;;;;5069364;28;20551;-73
2022/12/07 05:01:31;;;;;;;6.93;5.03;;;2.60;99.90;;;;;;5069519;28;20312;-74
2022/12/07 05:03:58;;;;;;;6.30;4.53;;;2.50;99.90;;;;;;5069748;28;20693;-73
2022/12/07 05:06:25;;;;;;;5.23;4.53;;;2.50;99.90;;;;;;5070351;28;20308;-72
2022/12/07 05:08:54;;;;;;;5.80;4.23;;;2.50;99.90;;;;;;5068930;28;20352;-73
2022/12/07 05:11:39;;;;;;;4.93;4.40;;;2.50;99.90;;;;;;5072308;28;20208;-77
2022/12/07 05:14:08;;;;;;;5.30;4.57;;;2.50;99.90;;;;;;5068899;28;20197;-76
2022/12/07 05:16:35;;;;;;;6.03;4.10;;;2.50;99.90;;;;;;5074143;28;20979;-75
2022/12/07 05:19:03;;;;;;;5.63;4.23;;;2.50;99.90;;;;;;5073008;28;20209;-75
2022/12/07 05:21:31;;;;;;;5.90;4.47;;;2.50;99.90;;;;;;5074166;28;20215;-75
2022/12/07 05:24:03;;;;;;;5.50;4.23;;;2.50;99.90;;;;;;5072284;28;20221;-76
2022/12/07 05:26:30;;;;;;;6.63;4.83;;;2.40;99.90;;;;;;5074913;28;20205;-76
2022/12/07 05:29:00;;;;;;;8.03;4.80;;;2.40;99.90;;;;;;5072239;28;21201;-76
2022/12/07 05:31:28;;;;;;;6.87;4.50;;;2.40;99.90;;;;;;5071692;28;20201;-75
2022/12/07 05:33:55;;;;;;;5.17;4.33;;;2.40;99.90;;;;;;5071895;28;20229;-77
2022/12/07 05:36:24;;;;;;;7.57;5.10;;;2.40;99.90;;;;;;5074342;28;20299;-76
2022/12/07 05:38:51;;;;;;;6.37;4.70;;;2.40;99.90;;;;;;5069049;28;20248;-76
2022/12/07 05:44:05;;;;;;;5.73;4.33;;;2.30;99.90;;;;;;5071519;28;20547;-74
2022/12/07 05:46:32;;;;;;;6.97;4.53;;;2.40;99.90;;;;;;5071907;28;20288;-74
2022/12/07 05:48:59;;;;;;;5.17;4.23;;;2.30;99.90;;;;;;5067524;28;20210;-76
2022/12/07 05:51:26;;;;;;;8.23;4.83;;;2.30;99.90;;;;;;5071716;28;20209;-73
2022/12/07 05:53:53;;;;;;;6.00;4.63;;;2.40;99.90;;;;;;5067990;28;20210;-71
2022/12/07 05:56:21;;;;;;;6.37;4.50;;;2.30;99.90;;;;;;5068563;28;20668;-68
2022/12/07 06:01:32;;;;;;;6.80;5.03;;;2.30;99.90;;;;;;5072146;28;20203;-67
2022/12/07 06:03:59;;;;;;;5.57;4.60;;;2.30;99.90;;;;;;5067938;28;20231;-68
2022/12/07 06:06:26;;;;;;;7.18;5.85;;;2.30;99.90;;;;;;5065812;28;20453;-69
2022/12/07 06:08:53;;;;;;;6.13;5.13;;;2.30;99.90;;;;;;5067694;28;20227;-66
2022/12/07 06:14:08;;;;;;;5.00;4.40;;;2.30;99.90;;;;;;5047725;28;20216;-69
2022/12/07 06:16:34;;;;;;;6.43;4.33;;;2.30;99.90;;;;;;5065611;28;20201;-69
2022/12/07 06:19:01;;;;;;;6.45;4.93;;;2.20;99.90;;;;;;5065240;28;20454;-64
2022/12/07 06:21:28;;;;;;;5.27;4.50;;;2.20;99.90;;;;;;5070765;28;20704;-66
2022/12/07 06:23:55;;;;;;;6.88;5.07;;;2.20;99.90;;;;;;5071155;28;20449;-65
2022/12/07 06:26:23;;;;;;;8.93;5.63;;;2.20;99.90;;;;;;5066136;28;20905;-64
2022/12/07 06:28:50;;;;;;;8.60;4.87;;;2.20;99.90;;;;;;5064675;28;20212;-70
2022/12/07 06:31:17;;;;;;;6.00;4.37;;;2.20;99.90;;;;;;5065296;28;20304;-66
2022/12/07 06:33:44;;;;;;;5.13;4.37;;;2.20;99.90;;;;;;5069709;28;20201;-66
2022/12/07 06:36:11;;;;;;;4.80;4.10;;;2.20;99.90;;;;;;5070183;28;20205;-67
2022/12/07 06:38:38;;;;;;;7.97;4.60;;;2.20;99.90;;;;;;5065345;28;20233;-67
2022/12/07 06:41:06;;;;;;;5.93;4.50;;;2.20;99.90;;;;;;5068890;28;20205;-66
2022/12/07 06:43:34;;;;;;;5.70;4.40;;;2.10;99.90;;;;;;5064883;28;20430;-65
2022/12/07 06:46:01;;;;;;;5.27;4.10;;;2.10;99.90;;;;;;5066095;28;20215;-68
2022/12/07 06:48:28;;;;;;;6.07;4.20;;;2.10;99.90;;;;;;5066672;28;20206;-68
2022/12/07 06:50:55;;;;;;;6.47;4.70;;;2.20;99.90;;;;;;5067851;28;20296;-67
2022/12/07 06:53:22;;;;;;;5.93;4.60;;;2.10;99.90;;;;;;5069755;28;20579;-66
2022/12/07 06:55:49;;;;;;;6.20;4.77;;;2.10;99.90;;;;;;5069179;28;20212;-69
2022/12/07 06:58:16;;;;;;;6.70;4.73;;;2.10;99.90;;;;;;5070461;28;20248;-67
2022/12/07 07:00:45;;;;;;;5.97;4.40;;;2.10;99.90;;;;;;5069082;28;20240;-66
2022/12/07 07:03:12;;;;;;;8.67;4.33;;;2.10;99.90;;;;;;5070248;28;20224;-68
2022/12/07 07:05:38;;;;;;;7.73;4.73;;;2.10;99.90;;;;;;5071648;28;20296;-66
2022/12/07 07:08:05;;;;;;;5.80;5.00;;;2.10;99.90;;;;;;5066495;28;20209;-67
2022/12/07 07:10:32;;;;;;;7.37;4.50;;;2.10;99.90;;;;;;5067704;28;20201;-66
2022/12/07 07:12:59;;;;;;;6.00;4.60;;;2.10;99.90;;;;;;5070750;28;20299;-65
2022/12/07 07:15:26;;;;;;;7.53;5.13;;;2.10;99.90;;;;;;5070068;28;20231;-66
2022/12/07 07:17:54;;;;;;;5.10;4.13;;;2.10;99.90;;;;;;5070082;28;20233;-66
2022/12/07 07:20:22;;;;;;;6.80;4.47;;;2.10;99.90;;;;;;5070872;28;20208;-67
2022/12/07 07:22:48;;;;;;;6.47;5.23;;;2.10;99.90;;;;;;5070315;28;20236;-68
2022/12/07 07:25:16;;;;;;;7.30;5.17;;;2.10;99.90;;;;;;5064918;28;20288;-68
2022/12/07 07:27:43;;;;;;;6.80;4.77;;;2.10;99.90;;;;;;5068056;28;20209;-66
2022/12/07 07:30:11;;;;;;;5.10;3.97;;;2.10;99.90;;;;;;5064167;28;20201;-68
2022/12/07 07:32:37;;;;;;;9.60;4.87;;;2.10;99.90;;;;;;5066231;28;20209;-65
2022/12/07 07:35:06;;;;;;;7.40;4.93;;;2.10;99.90;;;;;;5061512;28;20201;-66
2022/12/07 07:37:33;;;;;;;7.70;4.47;;;2.10;99.90;;;;;;5067300;28;20239;-67
2022/12/07 07:40:00;;;;;;;5.23;4.47;;;2.20;99.90;;;;;;5069330;28;20661;-66
2022/12/07 07:42:27;;;;;;;7.20;4.73;;;2.10;99.90;;;;;;5070484;28;20672;-65
2022/12/07 07:44:54;;;;;;;5.13;4.30;;;2.20;99.90;;;;;;5067910;28;20225;-66
2022/12/07 07:47:20;;;;;;;8.57;4.60;;;2.20;99.90;;;;;;5070613;28;20205;-67
2022/12/07 07:49:47;;;;;;;5.40;4.13;;;2.10;99.90;;;;;;5069280;28;20574;-67
2022/12/07 07:52:16;;;;;;;6.37;4.50;;;2.10;99.90;;;;;;5069783;28;20213;-67
2022/12/07 07:54:42;;;;;;;8.17;4.67;;;2.10;99.90;;;;;;5069651;28;20201;-66
2022/12/07 07:57:09;;;;;;;7.87;4.73;;;2.20;99.90;;;;;;5070285;28;20301;-67
2022/12/07 07:59:36;;;;;;;5.77;4.90;;;2.20;99.90;;;;;;5070080;28;20249;-65
2022/12/07 08:02:03;;;;;;;6.33;4.80;;;2.20;99.90;;;;;;5069146;28;20237;-67
2022/12/07 08:04:30;;;;;;;6.87;4.40;;;2.20;99.90;;;;;;5069452;28;20225;-65
2022/12/07 08:06:58;;;;;;;6.33;4.20;;;2.20;99.90;;;;;;5067037;28;20300;-65
2022/12/07 08:09:26;;;;;;;9.10;4.57;;;2.20;99.90;;;;;;5069168;28;20598;-67
2022/12/07 08:11:53;;;;;;;6.67;4.60;;;2.20;99.90;;;;;;5067871;28;20216;-67
2022/12/07 08:14:20;;;;;;;8.27;5.20;;;2.20;99.90;;;;;;5069180;28;20686;-68
2022/12/07 08:16:47;;;;;;;6.60;4.60;;;2.30;99.90;;;;;;5069213;28;20669;-69
2022/12/07 08:19:14;;;;;;;7.50;5.00;;;2.30;99.90;;;;;;5064703;28;20674;-67
2022/12/07 08:21:40;;;;;;;11.17;5.33;;;2.30;99.90;;;;;;5062294;28;20231;-67
2022/12/07 08:24:07;;;;;;;7.87;5.37;;;2.30;99.90;;;;;;5066720;28;20221;-66
2022/12/07 08:26:36;;;;;;;8.63;5.40;;;2.40;99.90;;;;;;5068234;28;20209;-69
2022/12/07 08:29:03;;;;;;;7.90;5.67;;;2.40;99.90;;;;;;5069063;28;20545;-67
2022/12/07 08:31:30;;;;;;;9.60;5.10;;;2.40;99.90;;;;;;5068864;28;20709;-66
2022/12/07 08:33:57;;;;;;;9.93;6.30;;;2.40;99.90;;;;;;5068957;28;20215;-68
2022/12/07 08:36:24;;;;;;;8.80;5.77;;;2.40;99.90;;;;;;5069669;28;20658;-67
2022/12/07 08:38:51;;;;;;;10.93;6.43;;;2.40;99.90;;;;;;5067172;28;20232;-66
2022/12/07 08:41:18;;;;;;;9.53;6.30;;;2.50;99.90;;;;;;5068407;28;20296;-67
2022/12/07 08:43:46;;;;;;;11.23;6.67;;;2.50;99.90;;;;;;5069066;28;20303;-67
2022/12/07 08:46:17;;;;;;;14.83;8.07;;;2.50;99.90;;;;;;5069561;28;20215;-67
2022/12/07 08:48:48;;;;;;;10.93;7.07;;;2.50;99.90;;;;;;5065355;28;20645;-67
2022/12/07 08:51:14;;;;;;;16.93;8.13;;;2.50;99.90;;;;;;5066556;28;20225;-70
2022/12/07 08:53:43;;;;;;;13.47;8.40;;;2.50;99.90;;;;;;5068027;28;20285;-67
2022/12/07 08:56:10;;;;;;;12.83;8.00;;;2.50;99.90;;;;;;5070260;28;20280;-66
2022/12/07 08:58:39;;;;;;;12.50;7.60;;;2.60;99.90;;;;;;5070865;28;20834;-66
2022/12/07 09:01:07;;;;;;;13.83;8.83;;;2.60;99.90;;;;;;5070717;28;20229;-67
2022/12/07 09:03:34;;;;;;;17.23;8.43;;;2.70;99.90;;;;;;5071779;28;20235;-66
2022/12/07 09:06:01;;;;;;;19.33;11.40;;;2.70;99.90;;;;;;5071866;28;20206;-67
2022/12/07 09:08:32;;;;;;;14.03;9.20;;;2.80;99.90;;;;;;5071384;28;20615;-67
2022/12/07 09:10:59;;;;;;;15.57;9.23;;;2.90;99.90;;;;;;5072302;28;20679;-65
2022/12/07 09:13:27;;;;;;;13.90;8.57;;;2.90;99.90;;;;;;5071778;28;20219;-66
2022/12/07 09:15:53;;;;;;;18.30;9.83;;;3.00;99.90;;;;;;5072570;28;20212;-69
2022/12/07 09:18:22;;;;;;;16.57;8.97;;;3.00;99.90;;;;;;5071788;28;20713;-67
2022/12/07 09:20:49;;;;;;;14.20;8.67;;;3.10;99.90;;;;;;5071007;28;20205;-67
2022/12/07 09:23:16;;;;;;;14.83;9.33;;;3.10;99.90;;;;;;5068498;28;20213;-67
2022/12/07 09:25:43;;;;;;;14.63;9.07;;;3.10;99.90;;;;;;5072545;28;20221;-69
2022/12/07 09:28:10;;;;;;;13.83;9.27;;;3.20;99.90;;;;;;5072386;28;20585;-66
2022/12/07 09:30:37;;;;;;;12.57;8.30;;;3.20;99.90;;;;;;5072643;28;20245;-67
2022/12/07 09:33:04;;;;;;;13.47;8.63;;;3.20;99.90;;;;;;5069662;28;20264;-68
2022/12/07 09:35:32;;;;;;;12.53;8.00;;;3.20;99.90;;;;;;5071027;28;20213;-65
2022/12/07 09:37:59;;;;;;;15.77;8.77;;;3.30;99.90;;;;;;5068180;28;20542;-66
2022/12/07 09:40:26;;;;;;;14.37;8.40;;;3.30;99.90;;;;;;5072992;28;20209;-66
2022/12/07 09:42:55;;;;;;;14.23;8.50;;;3.30;99.90;;;;;;5070025;28;20311;-68
2022/12/07 09:45:34;;;;;;;14.07;9.10;;;3.40;99.90;;;;;;5073633;28;20248;-65
2022/12/07 09:48:03;;;;;;;16.70;9.30;;;3.40;99.90;;;;;;5072038;28;20579;-66
2022/12/07 09:50:32;;;;;;;12.47;7.93;;;3.40;99.90;;;;;;5071100;28;20205;-66
2022/12/07 09:53:09;;;;;;;11.00;7.83;;;3.40;99.90;;;;;;5072686;28;20211;-65
2022/12/07 09:55:38;;;;;;;13.43;8.40;;;3.50;99.90;;;;;;5068953;28;20200;-69
2022/12/07 09:58:05;;;;;;;14.97;8.23;;;3.50;99.90;;;;;;5070510;28;20308;-67
2022/12/07 10:00:32;;;;;;;12.90;7.60;;;3.60;99.90;;;;;;5069714;28;21745;-67
2022/12/07 10:03:00;;;;;;;13.33;7.40;;;3.50;99.90;;;;;;5068747;28;20235;-66
2022/12/07 10:05:31;;;;;;;17.37;8.47;;;3.60;99.90;;;;;;5070158;28;20221;-68
2022/12/07 10:07:59;;;;;;;13.90;8.13;;;3.60;99.90;;;;;;5072177;28;20695;-67
2022/12/07 10:10:30;;;;;;;15.97;7.57;;;3.60;99.90;;;;;;5068148;28;20229;-67
2022/12/07 10:12:59;;;;;;;12.90;7.87;;;3.70;99.90;;;;;;5069281;28;20211;-69
2022/12/07 10:15:42;;;;;;;15.23;7.80;;;3.70;99.90;;;;;;5069743;28;20210;-71
2022/12/07 10:18:29;;;;;;;17.13;7.50;;;3.70;99.90;;;;;;5067826;28;20212;-68
2022/12/07 10:21:16;;;;;;;13.73;7.97;;;3.70;99.90;;;;;;5064694;28;20299;-70
2022/12/07 10:24:01;;;;;;;12.50;7.93;;;3.80;99.90;;;;;;5070854;28;20213;-70
2022/12/07 10:26:31;;;;;;;15.10;8.57;;;3.70;99.90;;;;;;5071906;28;20326;-70
2022/12/07 10:29:01;;;;;;;12.90;8.07;;;3.70;99.90;;;;;;5070017;28;20197;-70
2022/12/07 10:31:29;;;;;;;13.87;8.60;;;3.70;99.90;;;;;;5069245;28;20228;-70
2022/12/07 10:33:58;;;;;;;11.90;7.93;;;3.70;99.90;;;;;;5070215;28;20213;-71
2022/12/07 10:36:27;;;;;;;10.90;7.60;;;3.70;99.90;;;;;;5067621;28;20201;-72
2022/12/07 10:39:01;;;;;;;12.83;7.53;;;3.70;99.90;;;;;;5069160;28;20260;-71
2022/12/07 10:41:29;;;;;;;14.57;7.27;;;3.70;99.90;;;;;;5069800;28;20204;-70
2022/12/07 10:43:57;;;;;;;14.93;7.90;;;3.70;99.90;;;;;;5071500;28;20210;-71
2022/12/07 10:46:53;;;;;;;13.53;7.97;;;3.70;99.90;;;;;;5070713;28;20213;-70
2022/12/07 10:49:53;;;;;;;13.47;7.50;;;3.80;99.90;;;;;;5063827;28;20208;-70
2022/12/07 10:52:32;;;;;;;12.80;7.80;;;3.80;99.90;;;;;;5057809;28;20248;-70
2022/12/07 10:55:17;;;;;;;12.50;7.77;;;3.80;99.90;;;;;;5069866;28;20193;-72
2022/12/07 10:57:56;;;;;;;11.90;7.50;;;3.80;99.90;;;;;;5063491;28;20201;-72
2022/12/07 11:00:25;;;;;;;10.43;6.87;;;3.80;99.90;;;;;;5072629;28;20321;-69
2022/12/07 11:03:24;;;;;;;9.33;7.20;;;3.80;99.90;;;;;;5071343;28;20211;-71
2022/12/07 11:05:57;;;;;;;9.90;6.97;;;3.90;99.90;;;;;;5070426;28;20251;-69
2022/12/07 11:08:45;;;;;;;9.97;6.73;;;3.80;99.90;;;;;;5068997;28;20560;-69
2022/12/07 11:11:17;;;;;;;11.77;7.40;;;3.90;99.90;;;;;;5070700;28;20288;-71
2022/12/07 11:13:53;;;;;;;10.77;7.20;;;3.90;99.90;;;;;;5070557;28;20198;-71
2022/12/07 11:16:28;;;;;;;9.10;7.33;;;3.80;99.90;;;;;;5070987;28;20689;-71
2022/12/07 11:19:14;;;;;;;10.47;7.30;;;3.90;99.90;;;;;;5069605;28;20204;-71
2022/12/07 11:21:49;;;;;;;10.60;7.27;;;3.90;99.90;;;;;;5070874;28;20209;-68
2022/12/07 11:24:18;;;;;;;9.40;7.07;;;3.90;99.90;;;;;;5070449;28;20300;-69
2022/12/07 11:27:02;;;;;;;11.57;7.20;;;3.90;99.90;;;;;;5069709;28;20212;-69
2022/12/07 11:29:47;;;;;;;9.97;7.17;;;3.90;99.90;;;;;;5069634;28;20205;-70
2022/12/07 11:32:22;;;;;;;10.47;7.70;;;3.90;99.90;;;;;;5065300;28;20205;-72
2022/12/07 11:34:59;;;;;;;11.00;7.27;;;3.90;99.90;;;;;;5069250;28;20189;-71
2022/12/07 11:37:32;;;;;;;12.43;8.07;;;3.90;99.90;;;;;;5067177;28;20229;-71
2022/12/07 11:40:02;;;;;;;11.13;7.67;;;3.80;99.90;;;;;;5069453;28;20197;-70
2022/12/07 11:42:37;;;;;;;10.40;7.70;;;3.90;99.90;;;;;;5070087;28;20207;-73
2022/12/07 11:45:16;;;;;;;11.97;8.27;;;3.90;99.90;;;;;;5069941;28;20212;-73
2022/12/07 11:47:48;;;;;;;11.73;8.20;;;3.90;99.90;;;;;;5065122;28;20209;-71
2022/12/07 11:50:26;;;;;;;12.77;8.30;;;4.00;99.90;;;;;;5069263;28;20205;-69
2022/12/07 11:52:58;;;;;;;11.77;7.67;;;4.00;99.90;;;;;;5070237;28;20299;-72
2022/12/07 11:55:32;;;;;;;9.37;7.30;;;4.00;99.90;;;;;;5066092;28;20569;-70
2022/12/07 11:58:23;;;;;;;9.77;7.47;;;4.00;99.90;;;;;;5064610;28;20568;-68
2022/12/07 12:00:52;;;;;;;9.77;7.47;;;4.10;99.90;;;;;;5051370;28;20222;-70
2022/12/07 12:03:30;;;;;;;10.70;7.87;;;4.20;99.90;;;;;;5063261;28;20303;-69
2022/12/07 12:05:56;;;;;;;9.33;7.10;;;4.20;99.90;;;;;;5060124;28;20213;-70
2022/12/07 12:08:31;;;;;;;11.10;7.70;;;4.20;99.90;;;;;;5068423;28;20288;-70
2022/12/07 12:11:06;;;;;;;9.10;6.90;;;4.20;99.90;;;;;;5061134;28;20707;-69
2022/12/07 12:14:12;;;;;;;9.00;6.73;;;4.20;99.90;;;;;;5067203;28;20201;-67
2022/12/07 12:17:07;;;;;;;8.93;7.03;;;4.10;99.90;;;;;;5067146;28;20201;-67
2022/12/07 12:19:38;;;;;;;10.70;7.47;;;4.10;99.90;;;;;;5068958;28;20844;-68
2022/12/07 12:22:13;;;;;;;8.67;6.80;;;4.00;99.90;;;;;;5067093;28;20546;-65
2022/12/07 12:24:43;;;;;;;10.23;7.33;;;4.00;99.90;;;;;;5063509;28;20216;-67
2022/12/07 12:27:18;;;;;;;11.13;7.87;;;3.90;99.90;;;;;;5066104;28;20205;-70
2022/12/07 12:29:52;;;;;;;10.97;7.80;;;3.80;99.90;;;;;;5064589;28;20848;-69
2022/12/07 12:32:22;;;;;;;12.20;6.90;;;3.80;99.90;;;;;;5067566;28;20296;-70
2022/12/07 12:35:20;;;;;;;9.87;6.90;;;3.80;99.90;;;;;;5066117;28;20229;-72
2022/12/07 12:37:48;;;;;;;9.53;6.47;;;3.80;99.90;;;;;;5064201;28;20254;-69
2022/12/07 12:40:44;;;;;;;11.60;8.07;;;3.80;99.90;;;;;;5067525;28;20240;-69
2022/12/07 12:43:48;;;;;;;13.63;8.47;;;3.80;99.90;;;;;;5065430;28;20205;-69
2022/12/07 12:46:46;;;;;;;11.77;7.10;;;3.80;99.90;;;;;;5068533;28;20225;-71
2022/12/07 12:49:42;;;;;;;11.83;8.27;;;3.70;99.90;;;;;;5062443;28;20208;-68
2022/12/07 12:52:52;;;;;;;11.63;7.60;;;3.70;99.90;;;;;;5066873;28;20621;-68
2022/12/07 12:55:43;;;;;;;11.87;8.67;;;3.80;99.90;;;;;;5059097;28;20197;-69
2022/12/07 12:58:33;;;;;;;12.17;8.73;;;3.70;99.90;;;;;;5066426;28;20205;-70
2022/12/07 13:01:48;;;;;;;12.63;8.43;;;3.70;99.90;;;;;;5069875;28;20303;-71
2022/12/07 13:04:49;;;;;;;13.33;8.60;;;3.70;99.90;;;;;;5062222;28;20213;-68
2022/12/07 13:08:04;;;;;;;13.07;8.67;;;3.60;99.90;;;;;;5065921;28;20605;-69
2022/12/07 13:10:37;;;;;;;11.13;7.57;;;3.60;99.90;;;;;;5065572;28;20639;-70
2022/12/07 13:13:25;;;;;;;9.60;6.97;;;3.60;99.90;;;;;;5066271;28;20209;-70
2022/12/07 13:15:54;;;;;;;8.83;6.70;;;3.60;99.90;;;;;;5063390;28;20671;-69
2022/12/07 13:18:26;;;;;;;7.87;6.43;;;3.60;99.90;;;;;;5063462;28;20206;-69
2022/12/07 13:20:57;;;;;;;8.43;6.20;;;3.60;99.90;;;;;;5060878;28;20293;-71
2022/12/07 13:23:32;;;;;;;8.17;6.17;;;3.60;99.90;;;;;;5063919;28;20203;-68